Time;durP1;ratioP1;P1;durP2;ratioP2;P2;SDS_P1;SDS_P2;PMS_P1;PMS_P2;Temp;Humidity;BMP_temperature;BMP_pressure;BME280_temperature;BME280_humidity;BME280_pressure;Samples;Min_cycle;Max_cycle;Signal;HPM_P1;HPM_P2
2023/10/30 04:39:38;;;;;;;1.08;0.45;;;;;;;;;;5081505;28;20460;-84
2023/10/30 04:42:03;;;;;;;0.50;0.50;;;;;;;;;;5081566;28;20033;-85
2023/10/30 04:44:29;;;;;;;0.93;0.60;;;;;;;;;;5082828;28;20074;-86
2023/10/30 04:46:54;;;;;;;0.40;0.40;;;;;;;;;;5081744;28;20025;-86
2023/10/30 04:49:20;;;;;;;0.93;0.63;;;;;;;;;;5085132;28;20017;-84
2023/10/30 04:51:45;;;;;;;0.93;0.93;;;;;;;;;;5080308;28;20024;-86
2023/10/30 04:54:10;;;;;;;3.55;0.85;;;;;;;;;;5079570;28;20024;-86
2023/10/30 04:56:36;;;;;;;1.10;0.63;;;;;;;;;;5078476;28;20032;-86
2023/10/30 04:59:01;;;;;;;0.45;0.45;;;;;;;;;;5074458;28;20021;-86
2023/10/30 05:01:27;;;;;;;1.23;0.85;;;;;;;;;;5079735;28;20530;-85
2023/10/30 05:03:52;;;;;;;0.68;0.45;;;;;;;;;;5088251;28;20025;-84
2023/10/30 05:06:18;;;;;;;1.00;0.77;;;;;;;;;;5081666;28;20039;-84
2023/10/30 05:08:49;;;;;;;0.68;0.60;;;;;;;;;;5079442;28;20038;-86
2023/10/30 05:11:21;;;;;;;0.47;0.47;;;;;;;;;;5078638;28;20032;-85
2023/10/30 05:13:46;;;;;;;0.75;0.70;;;;;;;;;;5081078;28;20492;-85
2023/10/30 05:16:15;;;;;;;1.60;0.98;;;;;;;;;;5082058;28;20028;-84
2023/10/30 05:18:41;;;;;;;0.60;0.60;;;;;;;;;;5073289;28;20476;-84
2023/10/30 05:21:06;;;;;;;0.30;0.30;;;;;;;;;;5072521;28;20024;-87
2023/10/30 05:23:34;;;;;;;0.28;0.28;;;;;;;;;;5076017;28;20028;-85
2023/10/30 05:25:59;;;;;;;1.02;0.63;;;;;;;;;;5079310;28;20062;-86
2023/10/30 05:28:24;;;;;;;0.63;0.63;;;;;;;;;;5071680;28;20044;-85
2023/10/30 05:30:50;;;;;;;1.20;0.55;;;;;;;;;;5075974;28;20036;-85
2023/10/30 05:33:47;;;;;;;0.65;0.65;;;;;;;;;;5071035;28;20020;-85
2023/10/30 05:36:13;;;;;;;1.30;0.52;;;;;;;;;;5065251;28;20485;-85
2023/10/30 05:38:38;;;;;;;0.45;0.45;;;;;;;;;;5070215;28;20052;-88
2023/10/30 05:41:04;;;;;;;0.30;0.30;;;;;;;;;;5066712;28;20059;-87
2023/10/30 05:43:29;;;;;;;0.43;0.43;;;;;;;;;;5069297;28;20036;-86
2023/10/30 05:45:56;;;;;;;6.40;1.48;;;;;;;;;;5069764;28;20031;-87
2023/10/30 05:48:21;;;;;;;1.55;1.02;;;;;;;;;;5069762;28;20052;-86
2023/10/30 05:50:55;;;;;;;0.73;0.35;;;;;;;;;;5059627;28;20476;-86
2023/10/30 05:53:21;;;;;;;0.80;0.80;;;;;;;;;;5055033;28;20029;-86
2023/10/30 05:55:46;;;;;;;3.15;0.95;;;;;;;;;;5061566;28;20025;-86
2023/10/30 05:58:15;;;;;;;4.15;1.45;;;;;;;;;;5058201;28;20020;-87
2023/10/30 06:00:40;;;;;;;0.30;0.30;;;;;;;;;;5054745;28;20059;-88
2023/10/30 06:03:13;;;;;;;1.45;1.15;;;;;;;;;;5055656;28;20435;-82
2023/10/30 06:05:39;;;;;;;0.82;0.73;;;;;;;;;;5056987;28;20068;-85
2023/10/30 06:08:04;;;;;;;1.08;0.95;;;;;;;;;;5062641;28;20052;-85
2023/10/30 06:10:30;;;;;;;0.32;0.32;;;;;;;;;;5053597;28;20032;-89
2023/10/30 06:12:55;;;;;;;1.30;1.08;;;;;;;;;;5063261;28;20103;-86
2023/10/30 06:15:21;;;;;;;1.33;0.93;;;;;;;;;;5053020;28;20028;-85
2023/10/30 06:17:46;;;;;;;1.48;1.13;;;;;;;;;;5053401;28;20029;-88
2023/10/30 06:20:11;;;;;;;1.40;1.30;;;;;;;;;;5055578;28;20416;-85
2023/10/30 06:22:37;;;;;;;3.25;1.20;;;;;;;;;;5053821;28;20028;-85
2023/10/30 06:25:03;;;;;;;1.02;0.98;;;;;;;;;;5050890;28;20541;-84
2023/10/30 06:27:31;;;;;;;0.60;0.32;;;;;;;;;;5053086;28;20041;-84
2023/10/30 06:29:57;;;;;;;9.93;1.55;;;;;;;;;;5052676;28;20491;-83
2023/10/30 06:32:23;;;;;;;1.27;1.17;;;;;;;;;;5058305;28;20448;-83
2023/10/30 06:34:48;;;;;;;1.50;1.23;;;;;;;;;;5055547;28;20063;-84
2023/10/30 06:37:15;;;;;;;1.15;0.68;;;;;;;;;;5054478;28;20075;-84
2023/10/30 06:39:41;;;;;;;1.13;0.82;;;;;;;;;;5051072;28;20423;-85
2023/10/30 06:42:06;;;;;;;3.63;1.90;;;;;;;;;;5058666;28;20029;-85
2023/10/30 06:44:32;;;;;;;5.35;1.92;;;;;;;;;;5056281;28;20052;-85
2023/10/30 06:46:58;;;;;;;1.75;1.58;;;;;;;;;;5052048;28;20115;-85
2023/10/30 06:49:24;;;;;;;2.08;1.35;;;;;;;;;;5054952;28;20040;-84
2023/10/30 06:51:50;;;;;;;1.10;1.00;;;;;;;;;;5056087;28;20025;-85
2023/10/30 06:54:15;;;;;;;1.83;1.73;;;;;;;;;;5055627;28;20029;-84
2023/10/30 06:56:41;;;;;;;1.73;1.50;;;;;;;;;;5048538;28;20029;-84
2023/10/30 06:59:12;;;;;;;6.07;2.28;;;;;;;;;;5054224;28;20077;-84
2023/10/30 07:01:44;;;;;;;2.38;1.42;;;;;;;;;;5053066;28;20024;-86
2023/10/30 07:04:14;;;;;;;2.60;1.27;;;;;;;;;;5055539;28;20029;-85
2023/10/30 07:06:42;;;;;;;4.05;1.55;;;;;;;;;;5056796;28;20112;-85
2023/10/30 07:09:08;;;;;;;2.13;1.33;;;;;;;;;;5053847;28;20318;-84
2023/10/30 07:11:37;;;;;;;3.95;2.17;;;;;;;;;;5062872;28;20032;-86
2023/10/30 07:14:03;;;;;;;5.75;3.25;;;;;;;;;;5060373;28;20021;-85
2023/10/30 07:16:33;;;;;;;2.45;1.92;;;;;;;;;;5050443;28;20048;-83
2023/10/30 07:18:59;;;;;;;5.85;1.58;;;;;;;;;;5086807;28;20112;-85
2023/10/30 07:21:25;;;;;;;2.72;1.50;;;;;;;;;;5059595;28;20067;-86
2023/10/30 07:23:51;;;;;;;3.95;1.85;;;;;;;;;;5060925;28;20116;-85
2023/10/30 07:26:17;;;;;;;2.95;1.23;;;;;;;;;;5055565;28;20097;-85
2023/10/30 07:28:45;;;;;;;1.58;1.17;;;;;;;;;;5048485;28;20021;-85
2023/10/30 07:31:11;;;;;;;1.73;1.23;;;;;;;;;;5053360;28;20066;-84
2023/10/30 07:33:36;;;;;;;3.40;1.73;;;;;;;;;;5057228;28;20052;-84
2023/10/30 07:36:03;;;;;;;1.08;0.98;;;;;;;;;;5057532;28;20024;-87
2023/10/30 07:38:29;;;;;;;2.13;1.30;;;;;;;;;;5055712;28;20509;-85
2023/10/30 07:40:55;;;;;;;3.88;2.03;;;;;;;;;;5059329;28;20036;-86
2023/10/30 07:43:23;;;;;;;5.85;1.77;;;;;;;;;;5062455;28;20035;-84
2023/10/30 07:45:52;;;;;;;2.05;1.40;;;;;;;;;;5054126;28;20038;-85
2023/10/30 07:48:18;;;;;;;1.15;1.05;;;;;;;;;;5057214;28;20020;-85
2023/10/30 07:50:44;;;;;;;0.93;0.77;;;;;;;;;;5057861;28;20043;-85
2023/10/30 07:53:10;;;;;;;1.60;0.93;;;;;;;;;;5059243;28;20049;-84
2023/10/30 07:55:38;;;;;;;3.63;1.17;;;;;;;;;;5058686;28;20731;-85
2023/10/30 07:58:04;;;;;;;1.98;1.52;;;;;;;;;;5061322;28;20040;-85
2023/10/30 08:00:30;;;;;;;1.30;0.90;;;;;;;;;;5065675;28;20058;-85
2023/10/30 08:02:55;;;;;;;1.00;0.90;;;;;;;;;;5054503;28;20084;-83
2023/10/30 08:05:22;;;;;;;3.83;1.98;;;;;;;;;;5061515;28;20087;-85
2023/10/30 08:07:48;;;;;;;2.92;1.88;;;;;;;;;;5055776;28;20029;-88
2023/10/30 08:10:14;;;;;;;1.63;1.38;;;;;;;;;;5055238;28;20147;-85
2023/10/30 08:12:40;;;;;;;6.10;2.00;;;;;;;;;;5056948;28;20028;-85
2023/10/30 08:15:09;;;;;;;2.10;1.90;;;;;;;;;;5060591;28;20083;-85
2023/10/30 08:17:35;;;;;;;3.60;1.88;;;;;;;;;;5060715;28;20733;-86
2023/10/30 08:20:01;;;;;;;1.23;1.13;;;;;;;;;;5060726;28;20033;-85
2023/10/30 08:22:27;;;;;;;2.22;1.63;;;;;;;;;;5062697;28;20035;-87
2023/10/30 08:24:52;;;;;;;5.13;1.75;;;;;;;;;;5055465;28;20020;-86
2023/10/30 08:27:18;;;;;;;1.65;1.13;;;;;;;;;;5060422;28;20028;-86
2023/10/30 08:29:44;;;;;;;1.70;1.38;;;;;;;;;;5061228;28;20035;-87
2023/10/30 08:32:09;;;;;;;5.05;1.70;;;;;;;;;;5060309;28;20017;-86
2023/10/30 08:34:34;;;;;;;1.73;1.27;;;;;;;;;;5056889;28;20024;-86
2023/10/30 08:37:00;;;;;;;2.63;2.10;;;;;;;;;;5055267;28;20063;-84
2023/10/30 08:39:26;;;;;;;3.85;1.40;;;;;;;;;;5058949;28;20036;-86
2023/10/30 08:41:51;;;;;;;1.85;1.25;;;;;;;;;;5060459;28;20032;-86
2023/10/30 08:44:17;;;;;;;6.63;2.47;;;;;;;;;;5062319;28;20025;-85
2023/10/30 08:46:42;;;;;;;2.55;1.42;;;;;;;;;;5065108;28;20032;-86
2023/10/30 08:49:07;;;;;;;1.55;1.20;;;;;;;;;;5065356;28;20028;-88
2023/10/30 08:51:41;;;;;;;2.72;1.50;;;;;;;;;;5058324;28;20454;-84
2023/10/30 08:54:07;;;;;;;1.40;1.30;;;;;;;;;;5055860;28;20025;-84
2023/10/30 08:56:32;;;;;;;0.95;0.93;;;;;;;;;;5058546;28;20111;-86
2023/10/30 08:58:58;;;;;;;1.60;1.17;;;;;;;;;;5062780;28;20660;-85
2023/10/30 09:01:24;;;;;;;15.82;1.88;;;;;;;;;;5053035;28;20418;-86
2023/10/30 09:03:50;;;;;;;1.67;1.33;;;;;;;;;;5061483;28;20024;-85
2023/10/30 09:06:15;;;;;;;8.05;2.17;;;;;;;;;;5056066;28;20028;-86
2023/10/30 09:08:41;;;;;;;3.85;1.27;;;;;;;;;;5061891;28;20355;-86
2023/10/30 09:11:06;;;;;;;2.72;1.25;;;;;;;;;;5057237;28;20032;-85
2023/10/30 09:13:32;;;;;;;3.80;1.27;;;;;;;;;;5056673;28;20097;-86
2023/10/30 09:15:57;;;;;;;1.98;1.52;;;;;;;;;;5054248;28;20029;-85
2023/10/30 09:18:23;;;;;;;1.20;1.08;;;;;;;;;;5064329;28;20059;-84
2023/10/30 09:20:48;;;;;;;3.40;1.25;;;;;;;;;;5060858;28;20088;-84
2023/10/30 09:23:13;;;;;;;2.47;1.08;;;;;;;;;;5058645;28;20036;-86
2023/10/30 09:25:39;;;;;;;4.55;0.88;;;;;;;;;;5059923;28;20388;-86
2023/10/30 09:28:04;;;;;;;2.88;1.90;;;;;;;;;;5058942;28;20110;-87
2023/10/30 09:30:30;;;;;;;2.25;1.30;;;;;;;;;;5065225;28;20097;-82
2023/10/30 09:32:59;;;;;;;1.63;1.05;;;;;;;;;;5062026;28;20040;-86
2023/10/30 09:35:30;;;;;;;0.93;0.73;;;;;;;;;;5057279;28;20039;-86
2023/10/30 09:37:56;;;;;;;4.03;2.17;;;;;;;;;;5059481;28;20028;-84
2023/10/30 09:40:28;;;;;;;8.35;2.03;;;;;;;;;;5056637;28;20048;-86
2023/10/30 09:42:54;;;;;;;1.85;1.30;;;;;;;;;;5064648;28;20028;-88
2023/10/30 09:45:25;;;;;;;1.80;1.45;;;;;;;;;;5061495;28;20450;-87
2023/10/30 09:47:55;;;;;;;5.95;1.88;;;;;;;;;;5065775;28;20021;-86
2023/10/30 09:50:22;;;;;;;2.45;1.30;;;;;;;;;;5061561;28;20491;-85
2023/10/30 09:52:48;;;;;;;2.47;1.65;;;;;;;;;;5061191;28;20373;-86
2023/10/30 09:55:17;;;;;;;12.30;1.77;;;;;;;;;;5066992;28;20028;-87
2023/10/30 09:57:43;;;;;;;6.50;2.42;;;;;;;;;;5062374;28;20056;-87
2023/10/30 10:00:09;;;;;;;6.28;1.85;;;;;;;;;;5064368;28;20061;-86
2023/10/30 10:02:34;;;;;;;1.35;0.90;;;;;;;;;;5061794;28;20025;-86
2023/10/30 10:05:00;;;;;;;2.38;1.55;;;;;;;;;;5056086;28;20468;-85
2023/10/30 10:07:28;;;;;;;3.33;1.45;;;;;;;;;;5063956;28;20032;-85
2023/10/30 10:10:01;;;;;;;2.33;1.10;;;;;;;;;;5061045;28;20058;-86
2023/10/30 10:12:29;;;;;;;2.85;1.92;;;;;;;;;;5053810;28;20032;-85
2023/10/30 10:14:55;;;;;;;5.90;1.65;;;;;;;;;;5064571;28;20036;-84
2023/10/30 10:17:20;;;;;;;9.40;1.63;;;;;;;;;;5064303;28;20388;-85
2023/10/30 10:19:47;;;;;;;4.70;1.30;;;;;;;;;;5064159;28;20029;-84
2023/10/30 10:22:31;;;;;;;2.70;1.05;;;;;;;;;;5051798;28;20033;-85
2023/10/30 10:24:57;;;;;;;2.72;1.50;;;;;;;;;;5064706;28;20073;-86
2023/10/30 10:27:26;;;;;;;3.22;1.60;;;;;;;;;;5062557;28;20036;-85
2023/10/30 10:29:56;;;;;;;2.67;1.05;;;;;;;;;;5061857;28;20381;-84
2023/10/30 10:32:26;;;;;;;;;;;;;;;;;;5063798;28;20028;-85
2023/10/30 10:35:02;;;;;;;4.10;1.20;;;;;;;;;;5053576;28;20461;-85
2023/10/30 10:37:29;;;;;;;1.27;1.00;;;;;;;;;;5053623;28;20029;-84
2023/10/30 10:39:55;;;;;;;1.33;0.77;;;;;;;;;;5060216;28;20052;-83
2023/10/30 10:42:27;;;;;;;1.48;1.00;;;;;;;;;;5064013;28;20032;-87
2023/10/30 10:44:55;;;;;;;1.65;0.80;;;;;;;;;;5055969;28;20086;-85
2023/10/30 10:47:22;;;;;;;1.77;0.68;;;;;;;;;;5056964;28;20024;-85
2023/10/30 10:49:48;;;;;;;1.10;0.82;;;;;;;;;;5058850;28;20040;-86
2023/10/30 10:52:15;;;;;;;2.90;1.30;;;;;;;;;;5057829;28;20027;-84
2023/10/30 10:54:53;;;;;;;1.55;1.05;;;;;;;;;;5056712;28;20074;-86
2023/10/30 10:57:20;;;;;;;3.03;1.17;;;;;;;;;;5062155;28;20072;-85
2023/10/30 10:59:51;;;;;;;1.58;1.20;;;;;;;;;;5058452;28;20021;-85
2023/10/30 11:02:21;;;;;;;1.73;0.88;;;;;;;;;;5063140;28;20032;-85
2023/10/30 11:04:49;;;;;;;1.15;1.00;;;;;;;;;;5060840;28;20037;-86
2023/10/30 11:07:27;;;;;;;4.45;1.20;;;;;;;;;;5064127;28;20039;-86
2023/10/30 11:09:57;;;;;;;1.27;0.90;;;;;;;;;;5052893;28;20035;-85
2023/10/30 11:12:57;;;;;;;3.15;1.10;;;;;;;;;;5061464;28;20434;-85
2023/10/30 11:15:34;;;;;;;6.07;1.00;;;;;;;;;;5041954;28;20047;-85
2023/10/30 11:18:21;;;;;;;3.78;0.70;;;;;;;;;;5064964;28;20056;-83
2023/10/30 11:20:53;;;;;;;2.00;0.88;;;;;;;;;;5059762;28;20021;-85
2023/10/30 11:23:55;;;;;;;0.60;0.45;;;;;;;;;;5057661;28;20383;-84
2023/10/30 11:26:30;;;;;;;1.25;0.98;;;;;;;;;;5058633;28;20381;-85
2023/10/30 11:29:00;;;;;;;4.35;1.02;;;;;;;;;;5064474;28;20055;-84
2023/10/30 11:31:32;;;;;;;1.60;0.88;;;;;;;;;;5062514;28;20098;-85
2023/10/30 11:34:14;;;;;;;1.98;1.15;;;;;;;;;;5058783;28;20036;-84
2023/10/30 11:36:40;;;;;;;2.30;1.05;;;;;;;;;;5055770;28;20036;-84
2023/10/30 11:39:05;;;;;;;3.55;1.27;;;;;;;;;;5058535;28;20068;-86
2023/10/30 11:41:30;;;;;;;4.30;1.73;;;;;;;;;;5057212;28;20060;-84
2023/10/30 11:44:13;;;;;;;4.03;1.42;;;;;;;;;;5059125;28;20051;-87
2023/10/30 11:46:48;;;;;;;1.95;1.05;;;;;;;;;;5055657;28;20028;-85
2023/10/30 11:49:15;;;;;;;1.52;0.80;;;;;;;;;;5061145;28;20025;-85
2023/10/30 11:51:52;;;;;;;2.25;1.40;;;;;;;;;;5053132;28;20029;-85
2023/10/30 11:54:33;;;;;;;1.73;0.85;;;;;;;;;;5052567;28;20562;-85
2023/10/30 11:57:00;;;;;;;4.82;1.38;;;;;;;;;;5054002;28;20027;-85
2023/10/30 11:59:26;;;;;;;4.85;0.57;;;;;;;;;;5056313;28;20021;-86
2023/10/30 12:01:53;;;;;;;0.88;0.63;;;;;;;;;;5053752;28;20077;-86
2023/10/30 12:04:22;;;;;;;3.65;1.20;;;;;;;;;;5063902;28;20024;-84
2023/10/30 12:06:48;;;;;;;1.33;0.60;;;;;;;;;;5063010;28;20078;-83
2023/10/30 12:09:14;;;;;;;1.60;0.82;;;;;;;;;;5061790;28;20448;-87
2023/10/30 12:11:40;;;;;;;1.75;1.02;;;;;;;;;;5057969;28;20041;-85
2023/10/30 12:14:05;;;;;;;0.60;0.45;;;;;;;;;;5057405;28;20432;-85
2023/10/30 12:16:34;;;;;;;1.00;0.80;;;;;;;;;;5061532;28;20035;-85
2023/10/30 12:19:00;;;;;;;2.42;1.20;;;;;;;;;;5062259;28;20028;-83
2023/10/30 12:21:26;;;;;;;0.55;0.52;;;;;;;;;;5063623;28;20028;-85
2023/10/30 12:23:55;;;;;;;1.85;1.00;;;;;;;;;;5058406;28;20028;-85
2023/10/30 12:26:21;;;;;;;;;;;;;;;;;;5065379;28;20048;-84
2023/10/30 12:28:47;;;;;;;1.45;0.95;;;;;;;;;;5060924;28;19959;-86
2023/10/30 12:31:20;;;;;;;1.80;1.23;;;;;;;;;;5059624;28;20442;-84
2023/10/30 12:34:05;;;;;;;0.63;0.52;;;;;;;;;;5057000;28;20063;-84
2023/10/30 12:36:31;;;;;;;1.35;1.15;;;;;;;;;;5052502;28;20029;-85
2023/10/30 12:39:11;;;;;;;1.75;0.90;;;;;;;;;;5058618;28;20452;-85
2023/10/30 12:41:36;;;;;;;0.68;0.65;;;;;;;;;;5057731;28;20021;-86
2023/10/30 12:44:02;;;;;;;0.88;0.75;;;;;;;;;;5060460;28;20493;-85
2023/10/30 12:46:27;;;;;;;1.20;0.88;;;;;;;;;;5058880;28;20033;-85
2023/10/30 12:48:53;;;;;;;0.55;0.40;;;;;;;;;;5057760;28;20060;-86
2023/10/30 12:51:19;;;;;;;3.60;0.93;;;;;;;;;;5055639;28;20037;-85
2023/10/30 12:53:45;;;;;;;2.30;0.88;;;;;;;;;;5064248;28;20095;-85
2023/10/30 12:56:10;;;;;;;0.70;0.65;;;;;;;;;;5055203;28;20473;-84
2023/10/30 12:58:35;;;;;;;0.75;0.75;;;;;;;;;;5053717;28;20096;-84
2023/10/30 13:01:03;;;;;;;0.95;0.57;;;;;;;;;;5059483;28;20047;-85
2023/10/30 13:03:29;;;;;;;1.88;1.00;;;;;;;;;;5064498;28;20043;-85
2023/10/30 13:05:54;;;;;;;1.58;1.05;;;;;;;;;;5068232;28;20601;-84
2023/10/30 13:08:22;;;;;;;1.10;0.82;;;;;;;;;;5062193;28;20550;-85
2023/10/30 13:10:48;;;;;;;1.00;0.90;;;;;;;;;;5065767;28;20071;-85
2023/10/30 13:13:16;;;;;;;1.45;0.60;;;;;;;;;;5056822;28;20053;-86
2023/10/30 13:15:45;;;;;;;2.88;0.88;;;;;;;;;;5059942;28;20031;-80
2023/10/30 13:18:11;;;;;;;3.25;1.10;;;;;;;;;;5060465;28;20025;-85
2023/10/30 13:20:38;;;;;;;1.23;1.00;;;;;;;;;;5060961;28;20036;-85
2023/10/30 13:23:03;;;;;;;4.05;0.93;;;;;;;;;;5061663;28;20048;-85
2023/10/30 13:25:31;;;;;;;0.88;0.82;;;;;;;;;;5059922;28;20055;-84
2023/10/30 13:27:56;;;;;;;1.83;0.95;;;;;;;;;;5060375;28;20024;-84
2023/10/30 13:30:22;;;;;;;1.67;0.88;;;;;;;;;;5058851;28;20417;-86
2023/10/30 13:32:48;;;;;;;1.10;0.80;;;;;;;;;;5061068;28;20384;-85
2023/10/30 13:35:13;;;;;;;1.73;0.90;;;;;;;;;;5064011;28;20025;-83
2023/10/30 13:37:39;;;;;;;1.05;0.63;;;;;;;;;;5055458;28;20114;-85
2023/10/30 13:40:06;;;;;;;1.15;0.90;;;;;;;;;;5066514;28;20036;-83
2023/10/30 13:42:31;;;;;;;2.15;0.80;;;;;;;;;;5061285;28;20036;-84
2023/10/30 13:44:57;;;;;;;4.50;1.40;;;;;;;;;;5061459;28;20032;-83
2023/10/30 13:47:22;;;;;;;5.38;0.80;;;;;;;;;;5059697;28;20035;-81
2023/10/30 13:49:48;;;;;;;1.48;0.90;;;;;;;;;;5056481;28;20019;-82
2023/10/30 13:52:13;;;;;;;1.85;1.23;;;;;;;;;;5055259;28;20041;-85
2023/10/30 13:54:39;;;;;;;1.20;0.60;;;;;;;;;;5066790;28;20036;-83
2023/10/30 13:57:05;;;;;;;1.35;0.68;;;;;;;;;;5065294;28;20020;-85
2023/10/30 13:59:30;;;;;;;3.20;0.77;;;;;;;;;;5064351;28;20113;-84
2023/10/30 14:01:57;;;;;;;6.35;1.20;;;;;;;;;;5065118;28;20469;-83
2023/10/30 14:04:22;;;;;;;0.55;0.45;;;;;;;;;;5066812;28;20028;-84
2023/10/30 14:06:48;;;;;;;2.25;1.10;;;;;;;;;;5061277;28;20025;-84
2023/10/30 14:09:13;;;;;;;1.42;0.90;;;;;;;;;;5060747;28;20016;-84
2023/10/30 14:11:39;;;;;;;0.88;0.63;;;;;;;;;;5061217;28;20032;-84
2023/10/30 14:14:05;;;;;;;2.80;1.42;;;;;;;;;;5061034;28;20107;-85
2023/10/30 14:16:30;;;;;;;0.60;0.60;;;;;;;;;;5061415;28;20568;-82
2023/10/30 14:18:56;;;;;;;0.63;0.63;;;;;;;;;;5065438;28;20024;-84
2023/10/30 14:21:24;;;;;;;0.88;0.82;;;;;;;;;;5066697;28;20025;-84
2023/10/30 14:23:50;;;;;;;1.67;1.05;;;;;;;;;;5060525;28;20531;-82
2023/10/30 14:26:15;;;;;;;1.13;1.00;;;;;;;;;;5056924;28;20048;-84
2023/10/30 14:28:41;;;;;;;0.77;0.60;;;;;;;;;;5060973;28;20082;-82
2023/10/30 14:31:06;;;;;;;1.17;0.90;;;;;;;;;;5068370;28;20083;-84
2023/10/30 14:33:32;;;;;;;1.88;1.27;;;;;;;;;;5059446;28;20024;-84
2023/10/30 14:35:57;;;;;;;7.68;1.10;;;;;;;;;;5058896;28;20049;-83
2023/10/30 14:38:23;;;;;;;1.80;0.82;;;;;;;;;;5056498;28;20029;-83
2023/10/30 14:40:48;;;;;;;4.57;0.95;;;;;;;;;;5060506;28;20031;-84
2023/10/30 14:43:14;;;;;;;0.82;0.65;;;;;;;;;;5055027;28;20029;-85
2023/10/30 14:45:39;;;;;;;0.60;0.45;;;;;;;;;;5057423;28;20040;-83
2023/10/30 14:48:05;;;;;;;0.77;0.60;;;;;;;;;;5056415;28;20033;-84
2023/10/30 14:50:30;;;;;;;1.38;0.85;;;;;;;;;;5067341;28;20044;-84
2023/10/30 14:52:56;;;;;;;4.72;1.00;;;;;;;;;;5061007;28;20060;-84
2023/10/30 14:55:21;;;;;;;0.88;0.77;;;;;;;;;;5064647;28;20029;-84
2023/10/30 14:57:47;;;;;;;1.27;0.90;;;;;;;;;;5059183;28;20030;-83
2023/10/30 15:00:12;;;;;;;0.90;0.70;;;;;;;;;;5054502;28;20041;-83
2023/10/30 15:02:38;;;;;;;0.60;0.60;;;;;;;;;;5057900;28;20024;-83
2023/10/30 15:05:04;;;;;;;4.07;1.50;;;;;;;;;;5058787;28;20082;-83
2023/10/30 15:07:29;;;;;;;2.88;0.90;;;;;;;;;;5058718;28;20045;-83
2023/10/30 15:09:54;;;;;;;1.27;0.70;;;;;;;;;;5056993;28;20020;-83
2023/10/30 15:12:20;;;;;;;1.08;0.68;;;;;;;;;;5056115;28;20155;-82
2023/10/30 15:14:48;;;;;;;0.30;0.30;;;;;;;;;;5056539;28;20048;-80
2023/10/30 15:17:25;;;;;;;0.77;0.70;;;;;;;;;;5057763;28;20063;-84
2023/10/30 15:20:02;;;;;;;0.70;0.50;;;;;;;;;;5057588;28;20472;-82
2023/10/30 15:22:27;;;;;;;1.45;1.05;;;;;;;;;;5052568;28;20029;-84
2023/10/30 15:24:53;;;;;;;1.60;1.27;;;;;;;;;;5059601;28;20025;-83
2023/10/30 15:27:18;;;;;;;0.80;0.77;;;;;;;;;;5056430;28;20212;-83
2023/10/30 15:29:45;;;;;;;5.30;1.30;;;;;;;;;;5060045;28;20372;-82
2023/10/30 15:32:10;;;;;;;1.17;0.73;;;;;;;;;;5061908;28;20033;-82
2023/10/30 15:34:35;;;;;;;0.90;0.85;;;;;;;;;;5063914;28;20431;-82
2023/10/30 15:37:01;;;;;;;1.92;0.82;;;;;;;;;;5057281;28;20037;-85
2023/10/30 15:39:26;;;;;;;0.60;0.60;;;;;;;;;;5060220;28;20059;-82
2023/10/30 15:41:52;;;;;;;0.70;0.70;;;;;;;;;;5041197;28;20052;-83
2023/10/30 15:44:17;;;;;;;0.75;0.50;;;;;;;;;;5045071;28;20089;-84
2023/10/30 15:46:42;;;;;;;0.52;0.52;;;;;;;;;;5053056;28;20373;-83
2023/10/30 15:49:08;;;;;;;2.45;1.05;;;;;;;;;;5055411;28;20476;-85
2023/10/30 15:51:34;;;;;;;0.70;0.52;;;;;;;;;;5056580;28;20085;-84
